Vanquish — PHCU — position and weather

sailwx.info

Track history (hours):
 
Tides and Currents Weather Stations Pressure Air Temp Water Temp Dewpoint Dewpoint Depression Visibility Wind Speed Wind Dir Waves Ship Positions

Vanquish

Last reported at 2014-Sep-20 07:33 UTC. Time now 2014-Sep-20 10:04 UTC.
Position N 53°44' W 005°54'.

MMSI: 246138952.

Date/timePositionNaut miles runAvg speedWind from/ knotsBaromVisibWave heightAir tempDewpointWater temp
2014-Sep-20 07:33N 53°44' W 005°54'1211.9
2014-Sep-20 06:33N 53°55' W 005°60'10 9.7
2014-Sep-20 05:30N 54°03' W 006°10'2 0.1
2014-Sep-19 04:22N 54°02' W 006°08'8 9.3
2014-Sep-19 03:33N 53°56' W 006°00'71 8.9
2014-Sep-18 19:33N 52°47' W 005°34'9 8.6
2014-Sep-18 18:33N 52°38' W 005°33'10 9.7
2014-Sep-18 17:28N 52°28' W 005°33'106 9.7
2014-Sep-18 06:33N 51°21' W 003°21'1313.0
2014-Sep-18 05:33N 51°26' W 003°01'1312.6
2014-Sep-18 04:33N 51°30' W 002°43'0 0.3
2014-Sep-18 03:34N 51°30' W 002°42'0 0.0
2014-Sep-18 02:34N 51°30' W 002°42'0 0.0
2014-Sep-18 01:33N 51°30' W 002°42'0 0.0
2014-Sep-18 00:33N 51°30' W 002°42'0 0.0
2014-Sep-17 23:33N 51°30' W 002°42'0 0.5
2014-Sep-17 22:33N 51°30' W 002°43'7 6.9
2014-Sep-17 21:33N 51°28' W 002°53'9 8.6
2014-Sep-17 20:34N 51°23' W 003°05'9 8.8
2014-Sep-17 19:33N 51°21' W 003°18'98 8.1
2014-Sep-17 07:32N 52°13' W 005°32'10211.3
2014-Sep-16 22:33N 53°53' W 005°59'1210.9
2014-Sep-16 21:26N 54°03' W 006°10'2 0.3
2014-Sep-16 16:22N 54°02' W 006°08'1112.5
2014-Sep-16 15:31N 53°53' W 005°59'18110.7
2014-Sep-15 22:33N 51°21' W 003°17'1010.5
2014-Sep-15 21:33N 51°25' W 003°02'1010.4
2014-Sep-15 20:33N 51°30' W 002°47'3 2.7
2014-Sep-15 19:32N 51°30' W 002°42'0 0.0
2014-Sep-15 18:32N 51°30' W 002°42'0 0.0
2014-Sep-15 17:29N 51°30' W 002°42'0 0.0
2014-Sep-15 16:32N 51°30' W 002°42'0 0.0
2014-Sep-15 15:32N 51°30' W 002°42'0 0.0
2014-Sep-15 14:32N 51°30' W 002°42'0 0.0
2014-Sep-15 13:32N 51°30' W 002°42'0 0.0
2014-Sep-15 12:32N 51°30' W 002°42'0 0.0
2014-Sep-15 11:32N 51°30' W 002°42'0 0.0
2014-Sep-15 10:32N 51°30' W 002°42'0 0.0
2014-Sep-15 09:32N 51°30' W 002°42'0 0.0
2014-Sep-15 08:32N 51°30' W 002°42'0 0.0
2014-Sep-15 07:32N 51°30' W 002°42'0 0.0
2014-Sep-15 06:32N 51°30' W 002°42'0 0.0
2014-Sep-15 05:32N 51°30' W 002°42'0 0.0
2014-Sep-15 04:32N 51°30' W 002°42'0 0.0
2014-Sep-15 03:32N 51°30' W 002°42'0 0.0
2014-Sep-15 02:32N 51°30' W 002°42'0 0.0
2014-Sep-15 01:32N 51°30' W 002°42'0 0.0
2014-Sep-15 00:32N 51°30' W 002°42'0 0.0
2014-Sep-14 23:32N 51°30' W 002°42'0 0.0
2014-Sep-14 22:32N 51°30' W 002°42'0 0.0
2014-Sep-14 21:32N 51°30' W 002°42'0 0.0
2014-Sep-14 20:32N 51°30' W 002°42'0 0.0
2014-Sep-14 19:32N 51°30' W 002°42'0 0.0
2014-Sep-14 18:32N 51°30' W 002°42'0 0.0
2014-Sep-14 17:32N 51°30' W 002°42'0 0.0
2014-Sep-14 16:32N 51°30' W 002°42'0 0.0
2014-Sep-14 15:32N 51°30' W 002°42'0 0.0
2014-Sep-14 14:32N 51°30' W 002°42'0 0.0
2014-Sep-14 13:32N 51°30' W 002°42'0 0.0
2014-Sep-14 12:32N 51°30' W 002°42'0 0.0
2014-Sep-14 11:32N 51°30' W 002°42'0 0.4
2014-Sep-14 10:33N 51°30' W 002°43'8 7.6
2014-Sep-14 09:33N 51°28' W 002°54'1312.9
2014-Sep-14 08:34N 51°21' W 003°12'167 9.3
2014-Sep-13 14:31N 53°38' W 005°51'1510.9
2014-Sep-13 13:09N 53°52' W 005°58'710.8
2014-Sep-13 12:33N 53°58' W 006°01'10 9.0
2014-Sep-13 11:24N 54°05' W 006°14'5 0.1
2014-Sep-11 14:29N 54°02' W 006°08'1011.0
2014-Sep-11 13:33N 53°54' W 005°59'18011.3
2014-Sep-10 21:34N 51°21' W 003°20'1413.6
2014-Sep-10 20:33N 51°27' W 002°60'1111.1
2014-Sep-10 19:33N 51°30' W 002°43'1 0.7
2014-Sep-10 18:33N 51°30' W 002°42'0 0.0
2014-Sep-10 17:33N 51°30' W 002°42'0 0.0
2014-Sep-10 16:34N 51°30' W 002°42'0 0.0
2014-Sep-10 15:34N 51°30' W 002°42'0 0.0
2014-Sep-10 14:34N 51°30' W 002°42'0 0.0
2014-Sep-10 13:34N 51°30' W 002°42'0 0.0
2014-Sep-10 12:34N 51°30' W 002°42'0 0.0
2014-Sep-10 11:22N 51°30' W 002°42'0 0.0
2014-Sep-10 10:30N 51°30' W 002°42'0 0.0
2014-Sep-10 09:33N 51°30' W 002°42'0 0.0
2014-Sep-10 08:12N 51°30' W 002°42'0 0.0
2014-Sep-10 07:34N 51°30' W 002°42'  
Track history (hours):
 
Tides and Currents Weather Stations Pressure Air Temp Water Temp Dewpoint Dewpoint Depression Visibility Wind Speed Wind Dir Waves Ship Positions

Vanquish

Last reported at 2014-Sep-20 07:33 UTC. Time now 2014-Sep-20 10:04 UTC.
Position N 53°44' W 005°54'.

MMSI: 246138952.

Date/timePositionNaut miles runAvg speedWind from/ knotsBaromVisibWave heightAir tempDewpointWater temp
2014-Sep-20 07:33N 53°44' W 005°54'1211.9
2014-Sep-20 06:33N 53°55' W 005°60'10 9.7
2014-Sep-20 05:30N 54°03' W 006°10'2 0.1
2014-Sep-19 04:22N 54°02' W 006°08'8 9.3
2014-Sep-19 03:33N 53°56' W 006°00'71 8.9
2014-Sep-18 19:33N 52°47' W 005°34'9 8.6
2014-Sep-18 18:33N 52°38' W 005°33'10 9.7
2014-Sep-18 17:28N 52°28' W 005°33'106 9.7
2014-Sep-18 06:33N 51°21' W 003°21'1313.0
2014-Sep-18 05:33N 51°26' W 003°01'1312.6
2014-Sep-18 04:33N 51°30' W 002°43'0 0.3
2014-Sep-18 03:34N 51°30' W 002°42'0 0.0
2014-Sep-18 02:34N 51°30' W 002°42'0 0.0
2014-Sep-18 01:33N 51°30' W 002°42'0 0.0
2014-Sep-18 00:33N 51°30' W 002°42'0 0.0
2014-Sep-17 23:33N 51°30' W 002°42'0 0.5
2014-Sep-17 22:33N 51°30' W 002°43'7 6.9
2014-Sep-17 21:33N 51°28' W 002°53'9 8.6
2014-Sep-17 20:34N 51°23' W 003°05'9 8.8
2014-Sep-17 19:33N 51°21' W 003°18'98 8.1
2014-Sep-17 07:32N 52°13' W 005°32'10211.3
2014-Sep-16 22:33N 53°53' W 005°59'1210.9
2014-Sep-16 21:26N 54°03' W 006°10'2 0.3
2014-Sep-16 16:22N 54°02' W 006°08'1112.5
2014-Sep-16 15:31N 53°53' W 005°59'18110.7
2014-Sep-15 22:33N 51°21' W 003°17'1010.5
2014-Sep-15 21:33N 51°25' W 003°02'1010.4
2014-Sep-15 20:33N 51°30' W 002°47'3 2.7
2014-Sep-15 19:32N 51°30' W 002°42'0 0.0
2014-Sep-15 18:32N 51°30' W 002°42'0 0.0
2014-Sep-15 17:29N 51°30' W 002°42'0 0.0
2014-Sep-15 16:32N 51°30' W 002°42'0 0.0
2014-Sep-15 15:32N 51°30' W 002°42'0 0.0
2014-Sep-15 14:32N 51°30' W 002°42'0 0.0
2014-Sep-15 13:32N 51°30' W 002°42'0 0.0
2014-Sep-15 12:32N 51°30' W 002°42'0 0.0
2014-Sep-15 11:32N 51°30' W 002°42'0 0.0
2014-Sep-15 10:32N 51°30' W 002°42'0 0.0
2014-Sep-15 09:32N 51°30' W 002°42'0 0.0
2014-Sep-15 08:32N 51°30' W 002°42'0 0.0
2014-Sep-15 07:32N 51°30' W 002°42'0 0.0
2014-Sep-15 06:32N 51°30' W 002°42'0 0.0
2014-Sep-15 05:32N 51°30' W 002°42'0 0.0
2014-Sep-15 04:32N 51°30' W 002°42'0 0.0
2014-Sep-15 03:32N 51°30' W 002°42'0 0.0
2014-Sep-15 02:32N 51°30' W 002°42'0 0.0
2014-Sep-15 01:32N 51°30' W 002°42'0 0.0
2014-Sep-15 00:32N 51°30' W 002°42'0 0.0
2014-Sep-14 23:32N 51°30' W 002°42'0 0.0
2014-Sep-14 22:32N 51°30' W 002°42'0 0.0
2014-Sep-14 21:32N 51°30' W 002°42'0 0.0
2014-Sep-14 20:32N 51°30' W 002°42'0 0.0
2014-Sep-14 19:32N 51°30' W 002°42'0 0.0
2014-Sep-14 18:32N 51°30' W 002°42'0 0.0
2014-Sep-14 17:32N 51°30' W 002°42'0 0.0
2014-Sep-14 16:32N 51°30' W 002°42'0 0.0
2014-Sep-14 15:32N 51°30' W 002°42'0 0.0
2014-Sep-14 14:32N 51°30' W 002°42'0 0.0
2014-Sep-14 13:32N 51°30' W 002°42'0 0.0
2014-Sep-14 12:32N 51°30' W 002°42'0 0.0
2014-Sep-14 11:32N 51°30' W 002°42'0 0.4
2014-Sep-14 10:33N 51°30' W 002°43'8 7.6
2014-Sep-14 09:33N 51°28' W 002°54'1312.9
2014-Sep-14 08:34N 51°21' W 003°12'167 9.3
2014-Sep-13 14:31N 53°38' W 005°51'1510.9
2014-Sep-13 13:09N 53°52' W 005°58'710.8
2014-Sep-13 12:33N 53°58' W 006°01'10 9.0
2014-Sep-13 11:24N 54°05' W 006°14'5 0.1
2014-Sep-11 14:29N 54°02' W 006°08'1011.0
2014-Sep-11 13:33N 53°54' W 005°59'18011.3
2014-Sep-10 21:34N 51°21' W 003°20'1413.6
2014-Sep-10 20:33N 51°27' W 002°60'1111.1
2014-Sep-10 19:33N 51°30' W 002°43'1 0.7
2014-Sep-10 18:33N 51°30' W 002°42'0 0.0
2014-Sep-10 17:33N 51°30' W 002°42'0 0.0
2014-Sep-10 16:34N 51°30' W 002°42'0 0.0
2014-Sep-10 15:34N 51°30' W 002°42'0 0.0
2014-Sep-10 14:34N 51°30' W 002°42'0 0.0
2014-Sep-10 13:34N 51°30' W 002°42'0 0.0
2014-Sep-10 12:34N 51°30' W 002°42'0 0.0
2014-Sep-10 11:22N 51°30' W 002°42'0 0.0
2014-Sep-10 10:30N 51°30' W 002°42'0 0.0
2014-Sep-10 09:33N 51°30' W 002°42'0 0.0
2014-Sep-10 08:12N 51°30' W 002°42'0 0.0
2014-Sep-10 07:34N 51°30' W 002°42'  

Dump ship's entire track history